createdAt,value
2023-03-13T00:01:26.105Z,8.80
2023-03-13T00:05:29.086Z,8.95
2023-03-13T00:09:32.508Z,8.95
2023-03-13T00:13:35.659Z,8.92
2023-03-13T00:17:39.684Z,8.95
2023-03-13T00:21:43.018Z,8.98
2023-03-13T00:25:46.452Z,8.74
2023-03-13T00:29:50.831Z,8.82
2023-03-13T00:33:56.280Z,8.86
2023-03-13T00:37:59.282Z,8.81
2023-03-13T00:42:03.996Z,8.72
2023-03-13T00:46:08.084Z,8.61
2023-03-13T00:50:12.855Z,8.59
2023-03-13T00:54:17.472Z,8.54
2023-03-13T00:58:21.230Z,8.57
2023-03-13T01:02:24.072Z,8.43
2023-03-13T01:06:32.560Z,8.38
2023-03-13T01:10:36.227Z,8.30
2023-03-13T01:14:39.332Z,8.24
2023-03-13T01:18:44.901Z,8.23
2023-03-13T01:22:49.389Z,8.28
2023-03-13T01:26:55.581Z,8.36
2023-03-13T01:30:58.611Z,8.31
2023-03-13T01:35:01.510Z,8.34
2023-03-13T01:39:06.735Z,8.31
2023-03-13T01:43:27.177Z,8.30
2023-03-13T01:47:30.910Z,8.41
2023-03-13T01:51:35.625Z,8.30
2023-03-13T01:55:41.013Z,8.38
2023-03-13T01:59:49.723Z,8.28
2023-03-13T02:03:53.549Z,8.39
2023-03-13T02:07:57.152Z,8.47
2023-03-13T02:12:06.157Z,8.50
2023-03-13T02:16:12.317Z,8.64
2023-03-13T02:20:17.112Z,8.67
2023-03-13T02:24:25.867Z,8.74
2023-03-13T02:28:34.019Z,8.56
2023-03-13T02:32:40.841Z,8.83
2023-03-13T02:36:44.407Z,8.81
2023-03-13T02:40:52.958Z,8.86
2023-03-13T02:44:57.233Z,9.00
2023-03-13T02:49:00.343Z,8.92
2023-03-13T02:53:06.501Z,8.97
2023-03-13T02:57:15.746Z,8.94
2023-03-13T03:01:20.858Z,9.13
2023-03-13T03:05:24.519Z,9.10
2023-03-13T03:09:27.561Z,9.10
2023-03-13T03:18:04.913Z,9.11
2023-03-13T03:22:07.760Z,9.25
2023-03-13T03:26:10.550Z,9.31
2023-03-13T03:30:14.607Z,9.31
2023-03-13T03:34:19.221Z,9.30
2023-03-13T03:38:22.372Z,9.39
2023-03-13T03:42:25.317Z,9.43
2023-03-13T03:46:28.853Z,9.50
2023-03-13T03:50:33.394Z,9.52
2023-03-13T03:54:36.200Z,9.57
2023-03-13T03:58:39.749Z,9.60
2023-03-13T04:02:43.325Z,9.64
2023-03-13T04:06:50.598Z,9.70
2023-03-13T04:10:53.556Z,9.79
2023-03-13T04:14:56.532Z,10.06
2023-03-13T04:18:59.464Z,10.09
2023-03-13T04:23:07.096Z,10.09
2023-03-13T04:27:09.951Z,10.08
2023-03-13T04:31:12.889Z,10.25
2023-03-13T04:35:16.210Z,10.22
2023-03-13T04:39:20.946Z,10.16
2023-03-13T04:43:23.828Z,10.21
2023-03-13T04:47:26.855Z,10.23
2023-03-13T04:51:33.213Z,10.21
2023-03-13T04:55:37.820Z,10.20
2023-03-13T04:59:43.619Z,10.25
2023-03-13T05:03:47.333Z,10.29
2023-03-13T05:07:50.119Z,10.21
2023-03-13T05:11:56.522Z,10.29
2023-03-13T05:16:00.945Z,10.40
2023-03-13T05:20:07.094Z,10.47
2023-03-13T05:24:11.082Z,10.40
2023-03-13T05:28:15.660Z,10.54
2023-03-13T05:32:21.496Z,10.48
2023-03-13T05:36:24.565Z,10.39
2023-03-13T05:40:27.533Z,10.54
2023-03-13T05:44:32.334Z,10.55
2023-03-13T05:48:35.263Z,10.53
2023-03-13T05:52:38.622Z,10.66
2023-03-13T05:56:41.559Z,10.58
2023-03-13T06:00:45.758Z,10.69
2023-03-13T06:04:51.470Z,10.52
2023-03-13T06:08:54.968Z,10.75
2023-03-13T06:13:01.445Z,10.65
2023-03-13T06:17:14.451Z,10.62
2023-03-13T06:21:18.231Z,10.76
2023-03-13T06:25:22.798Z,10.84
2023-03-13T06:29:26.503Z,10.82
2023-03-13T06:33:31.229Z,10.73
2023-03-13T06:37:38.281Z,10.91
2023-03-13T06:41:41.836Z,10.93
2023-03-13T06:45:45.292Z,10.91
2023-03-13T06:49:52.593Z,10.80
2023-03-13T06:53:58.760Z,10.97
2023-03-13T06:58:02.441Z,10.88
2023-03-13T07:02:05.931Z,10.85
2023-03-13T07:06:11.233Z,11.05
2023-03-13T07:10:15.742Z,11.07
2023-03-13T07:14:18.402Z,11.06
2023-03-13T07:18:23.315Z,10.98
2023-03-13T07:22:28.199Z,11.06
2023-03-13T07:26:31.093Z,11.11
2023-03-13T07:30:35.662Z,11.00
2023-03-13T07:34:39.451Z,11.13
2023-03-13T07:38:44.380Z,11.15
2023-03-13T07:42:47.092Z,11.39
2023-03-13T07:46:50.394Z,11.39
2023-03-13T07:50:58.171Z,11.48
2023-03-13T07:55:02.990Z,11.58
2023-03-13T07:59:07.101Z,11.47
2023-03-13T08:03:11.025Z,11.38
2023-03-13T08:07:18.610Z,11.43
2023-03-13T08:11:25.005Z,11.45
2023-03-13T08:15:28.885Z,11.32
2023-03-13T08:19:32.366Z,11.48
2023-03-13T08:23:35.723Z,11.46
2023-03-13T08:27:40.827Z,11.19
2023-03-13T08:31:45.498Z,11.53
2023-03-13T08:35:49.020Z,11.45
2023-03-13T08:39:51.862Z,11.41
2023-03-13T08:43:56.998Z,11.49
2023-03-13T08:47:59.637Z,11.49
2023-03-13T08:52:02.691Z,11.42
2023-03-13T08:56:06.702Z,11.56
2023-03-13T09:00:14.923Z,11.73
2023-03-13T09:04:19.239Z,11.79
2023-03-13T09:08:22.238Z,11.74
2023-03-13T09:12:31.220Z,11.68
2023-03-13T09:16:36.871Z,11.68
2023-03-13T09:20:40.044Z,11.62
2023-03-13T09:24:45.285Z,11.73
2023-03-13T09:28:48.408Z,11.75
2023-03-13T09:32:52.953Z,11.75
2023-03-13T09:36:55.925Z,11.81
2023-03-13T09:41:06.579Z,11.86
2023-03-13T09:45:14.387Z,11.94
2023-03-13T09:49:29.944Z,11.90
2023-03-13T09:53:37.467Z,12.12
2023-03-13T09:57:47.155Z,12.29
2023-03-13T10:01:49.763Z,12.47
2023-03-13T10:05:57.092Z,12.54
2023-03-13T10:10:02.124Z,13.09
2023-03-13T10:14:11.842Z,13.26
2023-03-13T10:18:21.826Z,13.05
2023-03-13T10:22:30.020Z,13.25
2023-03-13T10:26:36.126Z,13.31
2023-03-13T10:30:40.727Z,13.39
2023-03-13T10:34:53.964Z,13.49
2023-03-13T10:38:58.450Z,13.48
2023-03-13T10:43:03.734Z,13.38
2023-03-13T10:47:14.754Z,13.52
2023-03-13T10:51:23.074Z,13.61
2023-03-13T10:55:28.053Z,13.72
2023-03-13T10:59:31.267Z,13.80
2023-03-13T11:03:34.471Z,13.60
2023-03-13T11:07:38.162Z,13.57
2023-03-13T11:11:50.571Z,13.67
2023-03-13T11:15:57.298Z,13.79
2023-03-13T11:20:06.887Z,13.96
2023-03-13T11:24:11.710Z,14.39
2023-03-13T11:28:31.268Z,14.24
2023-03-13T11:32:40.147Z,14.19
2023-03-13T11:36:47.363Z,14.23
2023-03-13T11:40:55.765Z,14.31
2023-03-13T11:45:04.897Z,14.22
2023-03-13T11:49:33.581Z,14.45
2023-03-13T11:53:45.891Z,14.64
2023-03-13T11:57:53.760Z,14.80
2023-03-13T12:02:01.324Z,14.98
2023-03-13T12:06:06.677Z,15.32
2023-03-13T12:10:17.255Z,15.31
2023-03-13T12:14:24.384Z,15.43
2023-03-13T12:18:33.258Z,15.41
2023-03-13T12:22:39.778Z,15.29
2023-03-13T12:26:45.456Z,14.99
2023-03-13T12:30:51.467Z,15.22
2023-03-13T12:35:01.684Z,15.26
2023-03-13T12:39:13.490Z,15.39
2023-03-13T12:43:18.053Z,15.41
2023-03-13T12:47:27.934Z,15.38
2023-03-13T12:51:43.240Z,15.21
2023-03-13T12:56:26.238Z,15.50
2023-03-13T13:00:30.707Z,15.48
2023-03-13T13:04:34.564Z,15.77
2023-03-13T13:08:41.513Z,16.00
2023-03-13T13:12:45.690Z,16.45
2023-03-13T13:16:52.301Z,16.34
2023-03-13T13:21:20.719Z,16.08
2023-03-13T13:25:35.146Z,16.13
2023-03-13T13:29:56.641Z,16.14
2023-03-13T13:33:59.511Z,16.52
2023-03-13T13:38:36.629Z,16.91
2023-03-13T13:42:48.564Z,17.25
2023-03-13T13:46:51.498Z,17.36
2023-03-13T13:51:33.826Z,17.16
2023-03-13T13:55:44.317Z,16.65
2023-03-13T14:00:00.862Z,17.09
2023-03-13T14:04:12.426Z,16.76
2023-03-13T14:08:18.574Z,16.99
2023-03-13T14:12:29.714Z,16.84
2023-03-13T14:16:34.492Z,16.53
2023-03-13T14:20:38.313Z,16.50
2023-03-13T14:24:43.251Z,12.97
2023-03-13T14:28:56.572Z,12.04
2023-03-13T14:33:00.812Z,12.04
2023-03-13T14:37:37.149Z,11.96
2023-03-13T14:41:45.287Z,11.78
2023-03-13T14:45:49.165Z,11.93
2023-03-13T14:49:59.455Z,11.97
2023-03-13T14:54:04.229Z,12.09
2023-03-13T14:58:27.112Z,12.00
2023-03-13T15:02:31.929Z,12.05
2023-03-13T15:06:37.177Z,12.53
2023-03-13T15:10:40.869Z,12.54
2023-03-13T15:14:45.058Z,12.63
2023-03-13T15:18:49.595Z,12.48
2023-03-13T15:22:53.781Z,12.64
2023-03-13T15:26:56.514Z,12.44
2023-03-13T15:30:59.551Z,12.52
2023-03-13T15:35:03.392Z,12.48
2023-03-13T15:39:12.447Z,12.55
2023-03-13T15:43:15.521Z,12.52
2023-03-13T15:47:20.553Z,12.54
2023-03-13T15:51:23.338Z,12.60
2023-03-13T15:55:28.889Z,12.93
2023-03-13T15:59:31.664Z,13.17
2023-03-13T16:03:35.240Z,13.11
2023-03-13T16:07:37.937Z,13.27
2023-03-13T16:11:42.143Z,13.09
2023-03-13T16:15:45.642Z,12.95
2023-03-13T16:19:48.505Z,12.62
2023-03-13T16:23:51.904Z,12.73
2023-03-13T16:27:56.339Z,12.68
2023-03-13T16:32:01.212Z,12.78
2023-03-13T16:36:13.013Z,12.57
2023-03-13T16:40:17.961Z,12.40
2023-03-13T16:44:23.875Z,12.22
2023-03-13T16:48:34.184Z,12.29
2023-03-13T16:52:38.392Z,12.21
2023-03-13T16:56:43.278Z,12.07
2023-03-13T17:05:12.816Z,12.28
2023-03-13T17:09:17.367Z,12.18
2023-03-13T17:13:23.218Z,12.10
2023-03-13T17:17:27.392Z,12.01
2023-03-13T17:21:32.276Z,11.89
2023-03-13T17:25:35.032Z,11.79
2023-03-13T17:29:37.955Z,11.63
2023-03-13T17:33:50.527Z,11.57
2023-03-13T17:37:53.335Z,11.63
2023-03-13T17:41:57.670Z,11.70
2023-03-13T17:46:00.560Z,11.29
2023-03-13T17:50:16.917Z,11.31
2023-03-13T17:54:22.500Z,11.16
2023-03-13T17:58:30.606Z,10.92
2023-03-13T18:02:34.425Z,10.77
2023-03-13T18:06:46.542Z,10.62
2023-03-13T18:10:50.282Z,10.59
2023-03-13T18:14:52.976Z,10.50
2023-03-13T18:18:57.017Z,10.32
2023-03-13T18:23:01.086Z,10.39
2023-03-13T18:27:05.352Z,10.27
2023-03-13T18:31:11.592Z,10.10
2023-03-13T18:35:15.777Z,10.14
2023-03-13T18:39:21.107Z,9.85
2023-03-13T18:43:26.149Z,9.82
2023-03-13T18:47:29.883Z,9.95
2023-03-13T18:51:32.896Z,9.64
2023-03-13T18:55:37.147Z,9.62
2023-03-13T18:59:41.348Z,9.28
2023-03-13T19:03:45.708Z,9.13
2023-03-13T19:07:48.703Z,8.96
2023-03-13T19:11:53.059Z,9.35
2023-03-13T19:15:56.386Z,9.39
2023-03-13T19:19:59.535Z,9.09
2023-03-13T19:24:02.229Z,9.14
2023-03-13T19:28:10.923Z,9.20
2023-03-13T19:32:15.299Z,9.13
2023-03-13T19:36:19.584Z,9.08
2023-03-13T19:40:24.035Z,9.38
2023-03-13T19:44:28.430Z,8.87
2023-03-13T19:48:31.349Z,9.01
2023-03-13T19:52:34.500Z,9.40
2023-03-13T19:56:39.498Z,9.17
2023-03-13T20:00:43.931Z,9.06
2023-03-13T20:04:46.758Z,9.19
2023-03-13T20:08:50.294Z,8.80
2023-03-13T20:12:53.632Z,8.74
2023-03-13T20:16:57.912Z,8.63
2023-03-13T20:21:00.824Z,8.36
2023-03-13T20:25:04.057Z,8.58
2023-03-13T20:29:07.155Z,8.27
2023-03-13T20:33:12.146Z,8.40
2023-03-13T20:37:14.930Z,8.36
2023-03-13T20:41:21.163Z,8.33
2023-03-13T20:45:23.890Z,8.47
2023-03-13T20:49:28.644Z,8.31
2023-03-13T20:53:31.542Z,8.13
2023-03-13T20:57:34.164Z,8.17
2023-03-13T21:01:37.135Z,7.95
2023-03-13T21:05:42.315Z,7.89
2023-03-13T21:09:45.123Z,7.83
2023-03-13T21:13:48.526Z,7.59
2023-03-13T21:17:53.876Z,7.58
2023-03-13T21:21:58.074Z,7.79
2023-03-13T21:26:01.737Z,7.68
2023-03-13T21:30:05.932Z,8.24
2023-03-13T21:34:10.943Z,8.43
2023-03-13T21:38:16.352Z,8.44
2023-03-13T21:42:19.463Z,8.45
2023-03-13T21:46:23.901Z,8.47
2023-03-13T21:50:26.568Z,8.19
2023-03-13T21:54:33.293Z,8.05
2023-03-13T21:58:37.136Z,8.03
2023-03-13T22:02:40.716Z,8.05
2023-03-13T22:06:43.367Z,8.36
2023-03-13T22:10:51.609Z,8.53
2023-03-13T22:14:57.428Z,8.62
2023-03-13T22:19:00.629Z,8.46
2023-03-13T22:23:04.687Z,8.45
2023-03-13T22:27:10.391Z,8.54
2023-03-13T22:31:13.922Z,8.41
2023-03-13T22:35:16.873Z,8.52
2023-03-13T22:39:19.700Z,8.62
2023-03-13T22:43:23.788Z,8.67
2023-03-13T22:47:26.751Z,8.66
2023-03-13T22:51:29.456Z,8.60
2023-03-13T22:55:33.946Z,8.50
2023-03-13T22:59:38.650Z,8.59
2023-03-13T23:03:43.083Z,8.64
2023-03-13T23:07:47.073Z,8.67
2023-03-13T23:11:51.045Z,8.78
2023-03-13T23:15:57.755Z,8.78
2023-03-13T23:20:01.600Z,8.80
2023-03-13T23:24:05.062Z,8.85
2023-03-13T23:28:09.014Z,8.89
2023-03-13T23:32:14.388Z,8.72
2023-03-13T23:36:23.189Z,8.99
2023-03-13T23:40:28.451Z,8.92
2023-03-13T23:44:32.983Z,8.78
2023-03-13T23:48:37.436Z,8.79
2023-03-13T23:52:41.334Z,8.80
2023-03-13T23:56:45.480Z,8.82
